sensor_id;sensor_type;location;lat;lon;timestamp;temperature;humidity
36552;DHT22;22559;54.176;12.102;2022-10-16T00:01:39;15.90;99.90
36552;DHT22;22559;54.176;12.102;2022-10-16T00:04:05;15.90;99.90
36552;DHT22;22559;54.176;12.102;2022-10-16T00:06:31;15.80;99.90
36552;DHT22;22559;54.176;12.102;2022-10-16T00:08:57;15.80;99.90
36552;DHT22;22559;54.176;12.102;2022-10-16T00:11:34;15.80;99.90
36552;DHT22;22559;54.176;12.102;2022-10-16T00:14:03;15.80;99.90
36552;DHT22;22559;54.176;12.102;2022-10-16T00:16:29;15.80;99.90
36552;DHT22;22559;54.176;12.102;2022-10-16T00:18:56;15.70;99.90
36552;DHT22;22559;54.176;12.102;2022-10-16T00:21:24;15.70;99.90
36552;DHT22;22559;54.176;12.102;2022-10-16T00:23:52;15.70;99.90
36552;DHT22;22559;54.176;12.102;2022-10-16T00:26:19;15.60;99.90
36552;DHT22;22559;54.176;12.102;2022-10-16T00:28:51;15.60;99.90
36552;DHT22;22559;54.176;12.102;2022-10-16T00:31:19;15.60;99.90
36552;DHT22;22559;54.176;12.102;2022-10-16T00:33:44;15.60;99.90
36552;DHT22;22559;54.176;12.102;2022-10-16T00:36:14;15.50;99.90
36552;DHT22;22559;54.176;12.102;2022-10-16T00:38:40;15.60;99.90
36552;DHT22;22559;54.176;12.102;2022-10-16T00:41:07;15.50;99.90
36552;DHT22;22559;54.176;12.102;2022-10-16T00:43:36;15.50;99.90
36552;DHT22;22559;54.176;12.102;2022-10-16T00:46:07;15.50;99.90
36552;DHT22;22559;54.176;12.102;2022-10-16T00:48:34;15.50;99.90
36552;DHT22;22559;54.176;12.102;2022-10-16T00:51:00;15.50;99.90
36552;DHT22;22559;54.176;12.102;2022-10-16T00:53:26;15.50;99.90
36552;DHT22;22559;54.176;12.102;2022-10-16T00:55:53;15.50;99.90
36552;DHT22;22559;54.176;12.102;2022-10-16T00:58:18;15.50;99.90
36552;DHT22;22559;54.176;12.102;2022-10-16T01:00:45;15.50;99.90
36552;DHT22;22559;54.176;12.102;2022-10-16T01:03:43;15.40;99.90
36552;DHT22;22559;54.176;12.102;2022-10-16T01:06:19;15.30;99.90
36552;DHT22;22559;54.176;12.102;2022-10-16T01:09:12;15.30;99.90
36552;DHT22;22559;54.176;12.102;2022-10-16T01:20:00;15.30;99.90
36552;DHT22;22559;54.176;12.102;2022-10-16T01:23:21;15.30;99.90
36552;DHT22;22559;54.176;12.102;2022-10-16T01:25:37;15.30;99.90
36552;DHT22;22559;54.176;12.102;2022-10-16T01:28:08;15.20;99.90
36552;DHT22;22559;54.176;12.102;2022-10-16T01:30:37;15.20;99.90
36552;DHT22;22559;54.176;12.102;2022-10-16T01:33:24;15.20;99.90
36552;DHT22;22559;54.176;12.102;2022-10-16T01:36:01;15.20;99.90
36552;DHT22;22559;54.176;12.102;2022-10-16T01:38:34;15.20;99.90
36552;DHT22;22559;54.176;12.102;2022-10-16T01:41:10;15.20;99.90
36552;DHT22;22559;54.176;12.102;2022-10-16T01:43:49;15.10;99.90
36552;DHT22;22559;54.176;12.102;2022-10-16T01:46:20;15.00;99.90
36552;DHT22;22559;54.176;12.102;2022-10-16T01:48:48;15.10;99.90
36552;DHT22;22559;54.176;12.102;2022-10-16T01:51:15;15.00;99.90
36552;DHT22;22559;54.176;12.102;2022-10-16T01:53:46;15.00;99.90
36552;DHT22;22559;54.176;12.102;2022-10-16T01:56:15;15.00;99.90
36552;DHT22;22559;54.176;12.102;2022-10-16T01:58:47;15.00;99.90
36552;DHT22;22559;54.176;12.102;2022-10-16T02:01:18;15.00;99.90
36552;DHT22;22559;54.176;12.102;2022-10-16T02:03:45;14.90;99.90
36552;DHT22;22559;54.176;12.102;2022-10-16T02:06:12;14.90;99.90
36552;DHT22;22559;54.176;12.102;2022-10-16T02:08:38;14.90;99.90
36552;DHT22;22559;54.176;12.102;2022-10-16T02:11:05;15.00;99.90
36552;DHT22;22559;54.176;12.102;2022-10-16T02:13:48;15.00;99.90
36552;DHT22;22559;54.176;12.102;2022-10-16T02:16:15;15.00;99.90
36552;DHT22;22559;54.176;12.102;2022-10-16T02:18:42;15.10;99.90
36552;DHT22;22559;54.176;12.102;2022-10-16T02:21:22;15.10;99.90
36552;DHT22;22559;54.176;12.102;2022-10-16T02:26:49;15.00;99.90
36552;DHT22;22559;54.176;12.102;2022-10-16T02:29:18;15.00;99.90
36552;DHT22;22559;54.176;12.102;2022-10-16T02:31:49;14.90;99.90
36552;DHT22;22559;54.176;12.102;2022-10-16T02:34:18;14.90;99.90
36552;DHT22;22559;54.176;12.102;2022-10-16T02:36:46;14.90;99.90
36552;DHT22;22559;54.176;12.102;2022-10-16T02:39:13;14.90;99.90
36552;DHT22;22559;54.176;12.102;2022-10-16T02:41:39;14.80;99.90
36552;DHT22;22559;54.176;12.102;2022-10-16T02:44:05;14.80;99.90
36552;DHT22;22559;54.176;12.102;2022-10-16T02:46:30;14.80;99.90
36552;DHT22;22559;54.176;12.102;2022-10-16T02:48:56;14.80;99.90
36552;DHT22;22559;54.176;12.102;2022-10-16T02:51:21;14.70;99.90
36552;DHT22;22559;54.176;12.102;2022-10-16T02:53:47;14.70;99.90
36552;DHT22;22559;54.176;12.102;2022-10-16T02:56:13;14.70;99.90
36552;DHT22;22559;54.176;12.102;2022-10-16T02:58:38;14.70;99.90
36552;DHT22;22559;54.176;12.102;2022-10-16T03:01:04;14.70;99.90
36552;DHT22;22559;54.176;12.102;2022-10-16T03:03:29;14.60;99.90
36552;DHT22;22559;54.176;12.102;2022-10-16T03:05:55;14.60;99.90
36552;DHT22;22559;54.176;12.102;2022-10-16T03:08:20;14.60;99.90
36552;DHT22;22559;54.176;12.102;2022-10-16T03:10:49;14.60;99.90
36552;DHT22;22559;54.176;12.102;2022-10-16T03:13:15;14.60;99.90
36552;DHT22;22559;54.176;12.102;2022-10-16T03:15:40;14.60;99.90
36552;DHT22;22559;54.176;12.102;2022-10-16T03:18:06;14.60;99.90
36552;DHT22;22559;54.176;12.102;2022-10-16T03:20:32;14.60;99.90
36552;DHT22;22559;54.176;12.102;2022-10-16T03:22:58;14.60;99.90
36552;DHT22;22559;54.176;12.102;2022-10-16T03:25:23;14.60;99.90
36552;DHT22;22559;54.176;12.102;2022-10-16T03:27:49;14.60;99.90
36552;DHT22;22559;54.176;12.102;2022-10-16T03:30:15;14.60;99.90
36552;DHT22;22559;54.176;12.102;2022-10-16T03:32:41;14.60;99.90
36552;DHT22;22559;54.176;12.102;2022-10-16T03:35:07;14.60;99.90
36552;DHT22;22559;54.176;12.102;2022-10-16T03:37:33;14.60;99.90
36552;DHT22;22559;54.176;12.102;2022-10-16T03:39:58;14.60;99.90
36552;DHT22;22559;54.176;12.102;2022-10-16T03:42:24;14.50;99.90
36552;DHT22;22559;54.176;12.102;2022-10-16T03:44:50;14.50;99.90
36552;DHT22;22559;54.176;12.102;2022-10-16T03:47:15;14.50;99.90
36552;DHT22;22559;54.176;12.102;2022-10-16T03:49:45;14.50;99.90
36552;DHT22;22559;54.176;12.102;2022-10-16T03:52:11;14.50;99.90
36552;DHT22;22559;54.176;12.102;2022-10-16T03:54:36;14.50;99.90
36552;DHT22;22559;54.176;12.102;2022-10-16T03:57:02;14.40;99.90
36552;DHT22;22559;54.176;12.102;2022-10-16T03:59:28;14.50;99.90
36552;DHT22;22559;54.176;12.102;2022-10-16T04:01:53;14.50;99.90
36552;DHT22;22559;54.176;12.102;2022-10-16T04:04:19;14.50;99.90
36552;DHT22;22559;54.176;12.102;2022-10-16T04:06:44;14.40;99.90
36552;DHT22;22559;54.176;12.102;2022-10-16T04:09:10;14.40;99.90
36552;DHT22;22559;54.176;12.102;2022-10-16T04:11:35;14.40;99.90
36552;DHT22;22559;54.176;12.102;2022-10-16T04:14:01;14.40;99.90
36552;DHT22;22559;54.176;12.102;2022-10-16T04:16:26;14.40;99.90
36552;DHT22;22559;54.176;12.102;2022-10-16T04:18:52;14.30;99.90
36552;DHT22;22559;54.176;12.102;2022-10-16T04:21:18;14.30;99.90
36552;DHT22;22559;54.176;12.102;2022-10-16T04:23:43;14.20;99.90
36552;DHT22;22559;54.176;12.102;2022-10-16T04:26:09;14.20;99.90
36552;DHT22;22559;54.176;12.102;2022-10-16T04:28:35;14.20;99.90
36552;DHT22;22559;54.176;12.102;2022-10-16T04:31:04;14.30;99.90
36552;DHT22;22559;54.176;12.102;2022-10-16T04:33:29;14.20;99.90
36552;DHT22;22559;54.176;12.102;2022-10-16T04:35:59;14.20;99.90
36552;DHT22;22559;54.176;12.102;2022-10-16T04:38:25;14.10;99.90
36552;DHT22;22559;54.176;12.102;2022-10-16T04:40:51;14.10;99.90
36552;DHT22;22559;54.176;12.102;2022-10-16T04:43:17;14.00;99.90
36552;DHT22;22559;54.176;12.102;2022-10-16T04:45:43;14.10;99.90
36552;DHT22;22559;54.176;12.102;2022-10-16T04:48:09;14.00;99.90
36552;DHT22;22559;54.176;12.102;2022-10-16T04:50:34;14.10;99.90
36552;DHT22;22559;54.176;12.102;2022-10-16T04:53:00;14.10;99.90
36552;DHT22;22559;54.176;12.102;2022-10-16T04:55:25;14.00;99.90
36552;DHT22;22559;54.176;12.102;2022-10-16T04:57:51;14.00;99.90
36552;DHT22;22559;54.176;12.102;2022-10-16T05:00:16;14.00;99.90
36552;DHT22;22559;54.176;12.102;2022-10-16T05:02:42;14.00;99.90
36552;DHT22;22559;54.176;12.102;2022-10-16T05:05:08;14.00;99.90
36552;DHT22;22559;54.176;12.102;2022-10-16T05:07:33;14.00;99.90
36552;DHT22;22559;54.176;12.102;2022-10-16T05:09:59;14.00;99.90
36552;DHT22;22559;54.176;12.102;2022-10-16T05:12:24;14.00;99.90
36552;DHT22;22559;54.176;12.102;2022-10-16T05:14:50;14.00;99.90
36552;DHT22;22559;54.176;12.102;2022-10-16T05:17:16;13.90;99.90
36552;DHT22;22559;54.176;12.102;2022-10-16T05:19:41;13.90;99.90
36552;DHT22;22559;54.176;12.102;2022-10-16T05:22:07;13.90;99.90
36552;DHT22;22559;54.176;12.102;2022-10-16T05:24:32;13.80;99.90
36552;DHT22;22559;54.176;12.102;2022-10-16T05:26:58;13.80;99.90
36552;DHT22;22559;54.176;12.102;2022-10-16T05:29:24;13.80;99.90
36552;DHT22;22559;54.176;12.102;2022-10-16T05:31:51;13.70;99.90
36552;DHT22;22559;54.176;12.102;2022-10-16T05:34:17;13.80;99.90
36552;DHT22;22559;54.176;12.102;2022-10-16T05:36:42;13.70;99.90
36552;DHT22;22559;54.176;12.102;2022-10-16T05:39:10;13.70;99.90
36552;DHT22;22559;54.176;12.102;2022-10-16T05:41:36;13.80;99.90
36552;DHT22;22559;54.176;12.102;2022-10-16T05:44:05;13.80;99.90
36552;DHT22;22559;54.176;12.102;2022-10-16T05:46:31;13.80;99.90
36552;DHT22;22559;54.176;12.102;2022-10-16T05:48:57;13.80;99.90
36552;DHT22;22559;54.176;12.102;2022-10-16T05:51:23;13.80;99.90
36552;DHT22;22559;54.176;12.102;2022-10-16T05:53:49;13.80;99.90
36552;DHT22;22559;54.176;12.102;2022-10-16T05:56:15;13.80;99.90
36552;DHT22;22559;54.176;12.102;2022-10-16T05:58:41;13.70;99.90
36552;DHT22;22559;54.176;12.102;2022-10-16T06:01:12;13.70;99.90
36552;DHT22;22559;54.176;12.102;2022-10-16T06:03:38;13.70;99.90
36552;DHT22;22559;54.176;12.102;2022-10-16T06:06:09;13.60;99.90
36552;DHT22;22559;54.176;12.102;2022-10-16T06:08:35;13.60;99.90
36552;DHT22;22559;54.176;12.102;2022-10-16T06:11:03;13.60;99.90
36552;DHT22;22559;54.176;12.102;2022-10-16T06:13:29;13.60;99.90
36552;DHT22;22559;54.176;12.102;2022-10-16T06:15:57;13.50;99.90
36552;DHT22;22559;54.176;12.102;2022-10-16T06:18:23;13.50;99.90
36552;DHT22;22559;54.176;12.102;2022-10-16T06:20:48;13.50;99.90
36552;DHT22;22559;54.176;12.102;2022-10-16T06:23:14;13.50;99.90
36552;DHT22;22559;54.176;12.102;2022-10-16T06:25:39;13.50;99.90
36552;DHT22;22559;54.176;12.102;2022-10-16T06:28:05;13.50;99.90
36552;DHT22;22559;54.176;12.102;2022-10-16T06:30:30;13.50;99.90
36552;DHT22;22559;54.176;12.102;2022-10-16T06:32:56;13.60;99.90
36552;DHT22;22559;54.176;12.102;2022-10-16T06:35:22;13.60;99.90
36552;DHT22;22559;54.176;12.102;2022-10-16T06:37:48;13.60;99.90
36552;DHT22;22559;54.176;12.102;2022-10-16T06:40:13;13.60;99.90
36552;DHT22;22559;54.176;12.102;2022-10-16T06:42:40;13.50;99.90
36552;DHT22;22559;54.176;12.102;2022-10-16T06:45:06;13.60;99.90
36552;DHT22;22559;54.176;12.102;2022-10-16T06:47:31;13.60;99.90
36552;DHT22;22559;54.176;12.102;2022-10-16T06:49:57;13.60;99.90
36552;DHT22;22559;54.176;12.102;2022-10-16T06:52:23;13.70;99.90
36552;DHT22;22559;54.176;12.102;2022-10-16T06:54:49;13.70;99.90
36552;DHT22;22559;54.176;12.102;2022-10-16T06:57:15;13.70;99.90
36552;DHT22;22559;54.176;12.102;2022-10-16T06:59:40;13.70;99.90
36552;DHT22;22559;54.176;12.102;2022-10-16T07:02:07;13.80;99.90
36552;DHT22;22559;54.176;12.102;2022-10-16T07:04:33;13.90;99.90
36552;DHT22;22559;54.176;12.102;2022-10-16T07:07:01;13.80;99.90
36552;DHT22;22559;54.176;12.102;2022-10-16T07:09:26;13.90;99.90
36552;DHT22;22559;54.176;12.102;2022-10-16T07:11:52;13.90;99.90
36552;DHT22;22559;54.176;12.102;2022-10-16T07:14:20;14.00;99.90
36552;DHT22;22559;54.176;12.102;2022-10-16T07:16:46;14.00;99.90
36552;DHT22;22559;54.176;12.102;2022-10-16T07:19:12;14.10;99.90
36552;DHT22;22559;54.176;12.102;2022-10-16T07:21:40;14.10;99.90
36552;DHT22;22559;54.176;12.102;2022-10-16T07:24:10;14.10;99.90
36552;DHT22;22559;54.176;12.102;2022-10-16T07:26:37;14.20;99.90
36552;DHT22;22559;54.176;12.102;2022-10-16T07:29:05;14.30;99.90
36552;DHT22;22559;54.176;12.102;2022-10-16T07:31:32;14.50;99.90
36552;DHT22;22559;54.176;12.102;2022-10-16T07:33:59;14.60;99.90
36552;DHT22;22559;54.176;12.102;2022-10-16T07:36:25;14.70;99.90
36552;DHT22;22559;54.176;12.102;2022-10-16T07:38:50;14.90;99.90
36552;DHT22;22559;54.176;12.102;2022-10-16T07:41:18;15.00;99.90
36552;DHT22;22559;54.176;12.102;2022-10-16T07:43:52;14.90;99.90
36552;DHT22;22559;54.176;12.102;2022-10-16T07:46:19;14.90;99.90
36552;DHT22;22559;54.176;12.102;2022-10-16T07:48:45;15.00;99.90
36552;DHT22;22559;54.176;12.102;2022-10-16T07:51:14;15.10;99.90
36552;DHT22;22559;54.176;12.102;2022-10-16T07:53:40;15.20;99.90
36552;DHT22;22559;54.176;12.102;2022-10-16T07:56:06;15.30;99.90
36552;DHT22;22559;54.176;12.102;2022-10-16T07:58:33;15.50;99.90
36552;DHT22;22559;54.176;12.102;2022-10-16T08:01:07;15.50;99.90
36552;DHT22;22559;54.176;12.102;2022-10-16T08:03:33;15.70;99.90
36552;DHT22;22559;54.176;12.102;2022-10-16T08:05:59;15.80;99.90
36552;DHT22;22559;54.176;12.102;2022-10-16T08:08:26;16.00;99.90
36552;DHT22;22559;54.176;12.102;2022-10-16T08:10:52;16.30;99.90
36552;DHT22;22559;54.176;12.102;2022-10-16T08:13:18;16.30;99.90
36552;DHT22;22559;54.176;12.102;2022-10-16T08:15:44;16.60;99.90
36552;DHT22;22559;54.176;12.102;2022-10-16T08:18:12;17.20;99.90
36552;DHT22;22559;54.176;12.102;2022-10-16T08:20:38;17.70;99.90
36552;DHT22;22559;54.176;12.102;2022-10-16T08:23:04;18.10;99.90
36552;DHT22;22559;54.176;12.102;2022-10-16T08:25:30;18.40;99.90
36552;DHT22;22559;54.176;12.102;2022-10-16T08:27:56;18.50;99.90
36552;DHT22;22559;54.176;12.102;2022-10-16T08:30:23;18.80;99.90
36552;DHT22;22559;54.176;12.102;2022-10-16T08:32:49;19.20;99.90
36552;DHT22;22559;54.176;12.102;2022-10-16T08:35:15;19.10;99.90
36552;DHT22;22559;54.176;12.102;2022-10-16T08:37:41;19.00;99.90
36552;DHT22;22559;54.176;12.102;2022-10-16T08:40:16;18.70;99.90
36552;DHT22;22559;54.176;12.102;2022-10-16T08:46:00;18.50;99.90
36552;DHT22;22559;54.176;12.102;2022-10-16T08:48:48;18.50;99.90
36552;DHT22;22559;54.176;12.102;2022-10-16T08:51:26;18.30;99.90
36552;DHT22;22559;54.176;12.102;2022-10-16T08:53:56;18.20;99.90
36552;DHT22;22559;54.176;12.102;2022-10-16T08:56:22;18.00;99.90
36552;DHT22;22559;54.176;12.102;2022-10-16T08:58:49;17.90;99.90
36552;DHT22;22559;54.176;12.102;2022-10-16T09:01:17;17.90;99.90
36552;DHT22;22559;54.176;12.102;2022-10-16T09:21:10;17.50;99.90
36552;DHT22;22559;54.176;12.102;2022-10-16T09:23:39;17.60;99.90
36552;DHT22;22559;54.176;12.102;2022-10-16T09:26:05;17.60;99.90
36552;DHT22;22559;54.176;12.102;2022-10-16T09:28:35;17.50;99.90
36552;DHT22;22559;54.176;12.102;2022-10-16T09:31:00;17.50;99.90
36552;DHT22;22559;54.176;12.102;2022-10-16T09:33:33;17.80;99.90
36552;DHT22;22559;54.176;12.102;2022-10-16T09:36:03;18.30;99.90
36552;DHT22;22559;54.176;12.102;2022-10-16T09:38:32;18.80;99.90
36552;DHT22;22559;54.176;12.102;2022-10-16T09:41:21;19.20;99.90
36552;DHT22;22559;54.176;12.102;2022-10-16T09:46:26;19.60;99.90
36552;DHT22;22559;54.176;12.102;2022-10-16T09:48:55;19.60;99.90
36552;DHT22;22559;54.176;12.102;2022-10-16T09:51:31;19.80;99.90
36552;DHT22;22559;54.176;12.102;2022-10-16T09:54:00;19.90;99.90
36552;DHT22;22559;54.176;12.102;2022-10-16T09:56:31;19.90;99.90
36552;DHT22;22559;54.176;12.102;2022-10-16T09:59:00;20.20;99.90
36552;DHT22;22559;54.176;12.102;2022-10-16T10:01:36;20.30;99.90
36552;DHT22;22559;54.176;12.102;2022-10-16T10:04:03;20.40;99.90
36552;DHT22;22559;54.176;12.102;2022-10-16T10:06:35;20.30;99.90
36552;DHT22;22559;54.176;12.102;2022-10-16T10:14:17;20.90;99.90
36552;DHT22;22559;54.176;12.102;2022-10-16T10:16:42;21.20;99.90
36552;DHT22;22559;54.176;12.102;2022-10-16T10:19:18;21.20;99.90
36552;DHT22;22559;54.176;12.102;2022-10-16T10:21:44;21.20;99.90
36552;DHT22;22559;54.176;12.102;2022-10-16T10:24:15;21.00;99.90
36552;DHT22;22559;54.176;12.102;2022-10-16T10:26:55;21.20;99.90
36552;DHT22;22559;54.176;12.102;2022-10-16T10:29:28;21.10;99.90
36552;DHT22;22559;54.176;12.102;2022-10-16T10:32:19;21.10;99.90
36552;DHT22;22559;54.176;12.102;2022-10-16T10:37:37;20.90;99.90
36552;DHT22;22559;54.176;12.102;2022-10-16T10:40:34;20.80;99.90
36552;DHT22;22559;54.176;12.102;2022-10-16T10:45:48;20.90;99.90
36552;DHT22;22559;54.176;12.102;2022-10-16T10:51:18;21.10;99.90
36552;DHT22;22559;54.176;12.102;2022-10-16T10:57:28;21.00;99.90
36552;DHT22;22559;54.176;12.102;2022-10-16T11:05:38;21.10;99.90
36552;DHT22;22559;54.176;12.102;2022-10-16T11:08:19;21.40;99.90
36552;DHT22;22559;54.176;12.102;2022-10-16T11:10:58;21.40;99.90
36552;DHT22;22559;54.176;12.102;2022-10-16T11:13:39;21.30;99.90
36552;DHT22;22559;54.176;12.102;2022-10-16T11:21:46;21.60;99.90
36552;DHT22;22559;54.176;12.102;2022-10-16T11:24:40;21.90;99.90
36552;DHT22;22559;54.176;12.102;2022-10-16T11:27:10;22.10;99.90
36552;DHT22;22559;54.176;12.102;2022-10-16T11:29:45;22.20;99.90
36552;DHT22;22559;54.176;12.102;2022-10-16T11:32:30;22.10;99.90
36552;DHT22;22559;54.176;12.102;2022-10-16T11:35:14;22.20;99.90
36552;DHT22;22559;54.176;12.102;2022-10-16T11:37:44;22.00;99.90
36552;DHT22;22559;54.176;12.102;2022-10-16T11:43:04;22.00;99.90
36552;DHT22;22559;54.176;12.102;2022-10-16T11:45:39;22.40;99.90
36552;DHT22;22559;54.176;12.102;2022-10-16T11:51:16;22.10;99.90
36552;DHT22;22559;54.176;12.102;2022-10-16T11:56:15;22.20;99.90
36552;DHT22;22559;54.176;12.102;2022-10-16T11:59:07;22.70;99.90
36552;DHT22;22559;54.176;12.102;2022-10-16T12:01:52;22.80;99.90
36552;DHT22;22559;54.176;12.102;2022-10-16T12:04:36;22.70;99.90
36552;DHT22;22559;54.176;12.102;2022-10-16T12:07:23;22.80;99.90
36552;DHT22;22559;54.176;12.102;2022-10-16T12:09:52;23.00;99.90
36552;DHT22;22559;54.176;12.102;2022-10-16T12:17:44;22.70;99.90
36552;DHT22;22559;54.176;12.102;2022-10-16T12:22:48;22.80;99.90
36552;DHT22;22559;54.176;12.102;2022-10-16T12:25:39;23.10;99.90
36552;DHT22;22559;54.176;12.102;2022-10-16T12:30:41;23.40;99.90
36552;DHT22;22559;54.176;12.102;2022-10-16T12:33:24;22.80;99.90
36552;DHT22;22559;54.176;12.102;2022-10-16T12:35:51;22.30;99.90
36552;DHT22;22559;54.176;12.102;2022-10-16T12:40:59;22.50;99.90
36552;DHT22;22559;54.176;12.102;2022-10-16T12:43:36;22.50;99.90
36552;DHT22;22559;54.176;12.102;2022-10-16T12:51:39;20.90;99.90
36552;DHT22;22559;54.176;12.102;2022-10-16T12:54:12;20.30;99.90
36552;DHT22;22559;54.176;12.102;2022-10-16T12:57:01;20.10;99.90
36552;DHT22;22559;54.176;12.102;2022-10-16T12:59:50;19.90;99.90
36552;DHT22;22559;54.176;12.102;2022-10-16T13:02:47;19.80;99.90
36552;DHT22;22559;54.176;12.102;2022-10-16T13:27:33;19.60;99.90
36552;DHT22;22559;54.176;12.102;2022-10-16T13:30:28;19.60;99.90
36552;DHT22;22559;54.176;12.102;2022-10-16T13:33:03;19.50;99.90
36552;DHT22;22559;54.176;12.102;2022-10-16T13:35:32;19.50;99.90
36552;DHT22;22559;54.176;12.102;2022-10-16T13:38:15;19.40;99.90
36552;DHT22;22559;54.176;12.102;2022-10-16T13:40:53;19.60;99.90
36552;DHT22;22559;54.176;12.102;2022-10-16T13:43:25;19.60;99.90
36552;DHT22;22559;54.176;12.102;2022-10-16T13:45:59;19.50;99.90
36552;DHT22;22559;54.176;12.102;2022-10-16T13:48:25;19.40;99.90
36552;DHT22;22559;54.176;12.102;2022-10-16T13:53:36;19.20;99.90
36552;DHT22;22559;54.176;12.102;2022-10-16T13:56:03;19.10;99.90
36552;DHT22;22559;54.176;12.102;2022-10-16T13:58:30;19.10;99.90
36552;DHT22;22559;54.176;12.102;2022-10-16T14:03:24;20.60;99.90
36552;DHT22;22559;54.176;12.102;2022-10-16T14:05:53;21.30;99.90
36552;DHT22;22559;54.176;12.102;2022-10-16T14:08:20;21.70;99.90
36552;DHT22;22559;54.176;12.102;2022-10-16T14:10:54;21.70;99.90
36552;DHT22;22559;54.176;12.102;2022-10-16T14:13:46;21.60;99.90
36552;DHT22;22559;54.176;12.102;2022-10-16T14:16:17;21.90;99.90
36552;DHT22;22559;54.176;12.102;2022-10-16T14:18:48;21.60;99.90
36552;DHT22;22559;54.176;12.102;2022-10-16T14:21:16;21.00;99.90
36552;DHT22;22559;54.176;12.102;2022-10-16T14:23:42;20.30;99.90
36552;DHT22;22559;54.176;12.102;2022-10-16T14:28:35;19.70;99.90
36552;DHT22;22559;54.176;12.102;2022-10-16T14:31:13;19.50;99.90
36552;DHT22;22559;54.176;12.102;2022-10-16T14:33:42;19.60;99.90
36552;DHT22;22559;54.176;12.102;2022-10-16T14:36:13;19.60;99.90
36552;DHT22;22559;54.176;12.102;2022-10-16T14:38:41;19.50;99.90
36552;DHT22;22559;54.176;12.102;2022-10-16T14:41:08;19.60;99.90
36552;DHT22;22559;54.176;12.102;2022-10-16T14:43:37;20.00;99.90
36552;DHT22;22559;54.176;12.102;2022-10-16T14:48:44;20.10;99.90
36552;DHT22;22559;54.176;12.102;2022-10-16T14:51:17;20.40;99.90
36552;DHT22;22559;54.176;12.102;2022-10-16T14:53:44;20.40;99.90
36552;DHT22;22559;54.176;12.102;2022-10-16T14:56:20;20.50;99.90
36552;DHT22;22559;54.176;12.102;2022-10-16T14:58:47;20.40;99.90
36552;DHT22;22559;54.176;12.102;2022-10-16T15:01:12;20.20;99.90
36552;DHT22;22559;54.176;12.102;2022-10-16T15:03:38;20.00;99.90
36552;DHT22;22559;54.176;12.102;2022-10-16T15:06:13;19.80;99.90
36552;DHT22;22559;54.176;12.102;2022-10-16T15:08:39;19.60;99.90
36552;DHT22;22559;54.176;12.102;2022-10-16T15:11:09;19.60;99.90
36552;DHT22;22559;54.176;12.102;2022-10-16T15:13:37;19.60;99.90
36552;DHT22;22559;54.176;12.102;2022-10-16T15:16:03;19.60;99.90
36552;DHT22;22559;54.176;12.102;2022-10-16T15:18:28;19.60;99.90
36552;DHT22;22559;54.176;12.102;2022-10-16T15:20:54;19.60;99.90
36552;DHT22;22559;54.176;12.102;2022-10-16T15:23:21;19.50;99.90
36552;DHT22;22559;54.176;12.102;2022-10-16T15:25:52;19.50;99.90
36552;DHT22;22559;54.176;12.102;2022-10-16T15:28:18;19.40;99.90
36552;DHT22;22559;54.176;12.102;2022-10-16T15:30:44;19.30;99.90
36552;DHT22;22559;54.176;12.102;2022-10-16T15:33:18;19.30;99.90
36552;DHT22;22559;54.176;12.102;2022-10-16T15:35:48;19.20;99.90
36552;DHT22;22559;54.176;12.102;2022-10-16T15:38:15;19.10;99.90
36552;DHT22;22559;54.176;12.102;2022-10-16T15:40:41;18.90;99.90
36552;DHT22;22559;54.176;12.102;2022-10-16T15:43:07;18.80;99.90
36552;DHT22;22559;54.176;12.102;2022-10-16T15:45:33;18.60;99.90
36552;DHT22;22559;54.176;12.102;2022-10-16T15:47:58;18.40;99.90
36552;DHT22;22559;54.176;12.102;2022-10-16T15:50:24;18.30;99.90
36552;DHT22;22559;54.176;12.102;2022-10-16T15:52:50;18.10;99.90
36552;DHT22;22559;54.176;12.102;2022-10-16T15:55:16;18.00;99.90
36552;DHT22;22559;54.176;12.102;2022-10-16T15:57:44;17.80;99.90
36552;DHT22;22559;54.176;12.102;2022-10-16T16:00:13;17.60;99.90
36552;DHT22;22559;54.176;12.102;2022-10-16T16:02:40;17.40;99.90
36552;DHT22;22559;54.176;12.102;2022-10-16T16:05:06;17.30;99.90
36552;DHT22;22559;54.176;12.102;2022-10-16T16:07:37;17.10;99.90
36552;DHT22;22559;54.176;12.102;2022-10-16T16:10:05;17.10;99.90
36552;DHT22;22559;54.176;12.102;2022-10-16T16:12:32;17.00;99.90
36552;DHT22;22559;54.176;12.102;2022-10-16T16:14:58;16.90;99.90
36552;DHT22;22559;54.176;12.102;2022-10-16T16:17:24;16.70;99.90
36552;DHT22;22559;54.176;12.102;2022-10-16T16:19:50;16.70;99.90
36552;DHT22;22559;54.176;12.102;2022-10-16T16:22:15;16.60;99.90
36552;DHT22;22559;54.176;12.102;2022-10-16T16:24:41;16.50;99.90
36552;DHT22;22559;54.176;12.102;2022-10-16T16:27:07;16.50;99.90
36552;DHT22;22559;54.176;12.102;2022-10-16T16:29:33;16.60;99.90
36552;DHT22;22559;54.176;12.102;2022-10-16T16:32:00;16.50;99.90
36552;DHT22;22559;54.176;12.102;2022-10-16T16:34:29;16.40;99.90
36552;DHT22;22559;54.176;12.102;2022-10-16T16:36:55;16.30;99.90
36552;DHT22;22559;54.176;12.102;2022-10-16T16:39:21;16.20;99.90
36552;DHT22;22559;54.176;12.102;2022-10-16T16:41:47;16.10;99.90
36552;DHT22;22559;54.176;12.102;2022-10-16T16:44:14;16.10;99.90
36552;DHT22;22559;54.176;12.102;2022-10-16T16:46:40;16.10;99.90
36552;DHT22;22559;54.176;12.102;2022-10-16T16:49:09;16.00;99.90
36552;DHT22;22559;54.176;12.102;2022-10-16T16:51:36;15.90;99.90
36552;DHT22;22559;54.176;12.102;2022-10-16T16:54:01;15.90;99.90
36552;DHT22;22559;54.176;12.102;2022-10-16T16:56:27;15.80;99.90
36552;DHT22;22559;54.176;12.102;2022-10-16T16:58:54;15.80;99.90
36552;DHT22;22559;54.176;12.102;2022-10-16T17:01:22;15.70;99.90
36552;DHT22;22559;54.176;12.102;2022-10-16T17:03:50;15.70;99.90
36552;DHT22;22559;54.176;12.102;2022-10-16T17:06:17;15.60;99.90
36552;DHT22;22559;54.176;12.102;2022-10-16T17:08:43;15.60;99.90
36552;DHT22;22559;54.176;12.102;2022-10-16T17:11:21;15.60;99.90
36552;DHT22;22559;54.176;12.102;2022-10-16T17:13:47;15.40;99.90
36552;DHT22;22559;54.176;12.102;2022-10-16T17:16:13;15.30;99.90
36552;DHT22;22559;54.176;12.102;2022-10-16T17:18:39;15.20;99.90
36552;DHT22;22559;54.176;12.102;2022-10-16T17:21:07;15.20;99.90
36552;DHT22;22559;54.176;12.102;2022-10-16T17:23:34;15.20;99.90
36552;DHT22;22559;54.176;12.102;2022-10-16T17:26:15;15.10;99.90
36552;DHT22;22559;54.176;12.102;2022-10-16T17:28:41;15.10;99.90
36552;DHT22;22559;54.176;12.102;2022-10-16T17:31:15;15.00;99.90